Time;durP1;ratioP1;P1;durP2;ratioP2;P2;SDS_P1;SDS_P2;PMS_P1;PMS_P2;Temp;Humidity;BMP_temperature;BMP_pressure;BME280_temperature;BME280_humidity;BME280_pressure;Samples;Min_cycle;Max_cycle;Signal;HPM_P1;HPM_P2
2022/05/11 00:00:16;;;;;;;18.98;12.20;;;13.00;99.90;;;;;;5061434;28;20053;-52
2022/05/11 00:02:41;;;;;;;20.38;10.73;;;12.90;99.90;;;;;;5061153;28;20029;-54
2022/05/11 00:05:10;;;;;;;17.63;10.55;;;13.00;99.90;;;;;;5061008;28;20048;-52
2022/05/11 00:07:36;;;;;;;20.38;10.43;;;13.00;99.90;;;;;;5061461;28;20053;-55
2022/05/11 00:10:11;;;;;;;20.75;10.82;;;13.00;99.90;;;;;;5061086;28;20084;-51
2022/05/11 00:12:38;;;;;;;21.60;11.70;;;13.00;99.90;;;;;;5061028;28;20036;-54
2022/05/11 00:15:04;;;;;;;16.52;10.60;;;13.00;99.90;;;;;;5061037;28;20101;-54
2022/05/11 00:17:29;;;;;;;23.45;11.32;;;13.00;99.90;;;;;;5060972;28;20041;-54
2022/05/11 00:19:55;;;;;;;19.63;10.88;;;12.90;99.90;;;;;;5060862;28;20125;-53
2022/05/11 00:22:21;;;;;;;19.38;10.43;;;13.00;99.90;;;;;;5061054;28;20052;-52
2022/05/11 00:24:46;;;;;;;20.83;11.88;;;12.90;99.90;;;;;;5043332;28;20116;-54
2022/05/11 00:27:12;;;;;;;19.30;12.45;;;13.00;99.90;;;;;;5060675;28;20041;-54
2022/05/11 00:29:37;;;;;;;17.73;11.05;;;12.90;99.90;;;;;;5060792;28;20044;-53
2022/05/11 00:32:04;;;;;;;16.23;10.40;;;13.00;99.90;;;;;;5060759;28;20049;-54
2022/05/11 00:34:29;;;;;;;22.83;12.73;;;12.90;99.90;;;;;;5060949;28;20075;-54
2022/05/11 00:36:56;;;;;;;18.73;10.75;;;12.90;99.90;;;;;;5060708;28;20056;-54
2022/05/11 00:39:22;;;;;;;20.42;10.73;;;12.90;99.90;;;;;;5060504;28;20041;-54
2022/05/11 00:41:48;;;;;;;21.60;11.88;;;13.00;99.90;;;;;;5060535;28;20052;-54
2022/05/11 00:44:14;;;;;;;24.67;12.50;;;12.90;99.90;;;;;;5060456;28;20089;-53
2022/05/11 00:47:09;;;;;;;18.17;10.80;;;13.00;99.90;;;;;;5060527;28;20041;-55
2022/05/11 00:49:44;;;;;;;21.05;11.48;;;13.00;99.90;;;;;;5038617;28;20056;-59
2022/05/11 00:52:24;;;;;;;19.10;12.00;;;13.00;99.90;;;;;;5060294;28;20049;-52
2022/05/11 00:55:03;;;;;;;24.20;12.30;;;13.00;99.90;;;;;;5060593;28;20090;-54
2022/05/11 00:57:51;;;;;;;25.00;13.00;;;13.00;99.90;;;;;;5060475;28;20049;-54
2022/05/11 01:00:19;;;;;;;17.30;11.00;;;13.00;99.90;;;;;;5060504;28;20049;-54
2022/05/11 01:02:51;;;;;;;18.98;11.45;;;13.10;99.90;;;;;;5060094;28;20049;-54
2022/05/11 01:05:16;;;;;;;20.75;13.32;;;13.00;99.90;;;;;;5060050;28;20045;-52
2022/05/11 01:07:42;;;;;;;20.73;12.43;;;13.00;99.90;;;;;;5059947;28;20094;-54
2022/05/11 01:10:09;;;;;;;30.42;13.65;;;13.00;99.90;;;;;;5060016;28;20037;-54
2022/05/11 01:12:47;;;;;;;20.45;13.23;;;13.00;99.90;;;;;;5060322;28;20092;-53
2022/05/11 01:15:16;;;;;;;22.58;12.50;;;13.00;99.90;;;;;;5059700;28;20052;-55
2022/05/11 01:17:41;;;;;;;20.60;12.07;;;13.00;99.90;;;;;;5042068;28;20076;-53
2022/05/11 01:20:20;;;;;;;26.50;13.18;;;13.00;99.90;;;;;;5060040;28;20045;-54
2022/05/11 01:22:46;;;;;;;20.92;11.80;;;13.00;99.90;;;;;;5060038;28;20045;-53
2022/05/11 01:25:13;;;;;;;21.77;13.30;;;13.00;99.90;;;;;;5060133;28;20051;-53
2022/05/11 01:27:45;;;;;;;21.58;12.05;;;13.00;99.90;;;;;;5059912;28;20051;-54
2022/05/11 01:30:15;;;;;;;22.33;12.55;;;13.00;99.90;;;;;;5060123;28;20076;-53
2022/05/11 01:32:48;;;;;;;19.67;12.70;;;13.00;99.90;;;;;;5059891;28;20048;-53
2022/05/11 01:35:38;;;;;;;18.13;12.45;;;13.10;99.90;;;;;;5059847;28;20041;-53
2022/05/11 01:38:08;;;;;;;21.67;11.80;;;13.00;99.90;;;;;;5059732;28;20060;-53
2022/05/11 01:40:34;;;;;;;21.55;11.52;;;13.00;99.90;;;;;;5041701;28;20092;-53
2022/05/11 01:43:00;;;;;;;19.60;11.85;;;13.00;99.90;;;;;;5059875;28;20055;-54
2022/05/11 01:45:25;;;;;;;20.33;12.65;;;13.00;99.90;;;;;;5059773;28;20049;-54
2022/05/11 01:47:55;;;;;;;20.92;11.80;;;13.10;99.90;;;;;;5041342;28;20052;-52
2022/05/11 01:50:21;;;;;;;20.20;11.93;;;13.00;99.90;;;;;;5060057;28;20061;-53
2022/05/11 01:52:47;;;;;;;21.00;11.48;;;13.00;99.90;;;;;;5059332;28;20047;-51
2022/05/11 01:55:12;;;;;;;19.63;10.75;;;13.00;99.90;;;;;;5059547;28;20037;-53
2022/05/11 01:57:39;;;;;;;19.52;11.52;;;13.00;99.90;;;;;;5059641;28;20510;-54
2022/05/11 02:00:07;;;;;;;19.92;12.20;;;13.00;99.90;;;;;;5059681;28;20040;-54
2022/05/11 02:02:32;;;;;;;19.02;10.27;;;13.00;99.90;;;;;;5041497;28;20067;-53
2022/05/11 02:07:51;;;;;;;18.48;10.38;;;13.00;99.90;;;;;;5059531;28;20060;-54
2022/05/11 02:10:23;;;;;;;15.40;10.38;;;13.00;99.90;;;;;;5059539;28;20045;-56
2022/05/11 02:12:49;;;;;;;;;;;13.00;99.90;;;;;;5059930;28;20041;-53
2022/05/11 02:15:16;;;;;;;16.40;10.18;;;13.00;99.90;;;;;;5041261;28;19943;-54
2022/05/11 02:17:43;;;;;;;18.63;10.68;;;13.00;99.90;;;;;;5058972;28;20075;-53
2022/05/11 02:20:11;;;;;;;17.88;10.00;;;13.00;99.90;;;;;;5060850;28;20041;-54
2022/05/11 02:22:38;;;;;;;16.25;10.20;;;13.00;99.90;;;;;;5063087;28;20079;-53
2022/05/11 02:25:04;;;;;;;17.88;10.15;;;13.00;99.90;;;;;;5063063;28;20041;-53
2022/05/11 02:27:32;;;;;;;15.75;10.10;;;13.00;99.90;;;;;;5044690;28;20108;-52
2022/05/11 02:29:58;;;;;;;16.40;10.02;;;13.00;99.90;;;;;;5063285;28;20100;-50
2022/05/11 02:32:24;;;;;;;16.70;10.48;;;13.00;99.90;;;;;;5062764;28;20057;-53
2022/05/11 02:37:34;;;;;;;15.00;9.50;;;13.00;99.90;;;;;;5062941;28;20075;-52
2022/05/11 02:40:00;;;;;;;18.77;9.85;;;13.00;99.90;;;;;;5062795;28;20037;-52
2022/05/11 02:42:26;;;;;;;17.85;10.77;;;13.00;99.90;;;;;;5062712;28;20045;-52
2022/05/11 02:44:52;;;;;;;15.98;9.95;;;13.00;99.90;;;;;;5062522;28;20099;-54
2022/05/11 02:47:18;;;;;;;16.38;10.05;;;13.00;99.90;;;;;;5062478;28;20049;-54
2022/05/11 02:49:45;;;;;;;15.98;9.25;;;12.90;99.90;;;;;;5062618;28;20068;-52
2022/05/11 02:52:11;;;;;;;15.43;9.50;;;13.00;99.90;;;;;;5062714;28;20060;-53
2022/05/11 02:54:37;;;;;;;14.75;9.25;;;12.90;99.90;;;;;;5062802;28;20055;-53
2022/05/11 02:57:03;;;;;;;17.17;9.45;;;12.90;99.90;;;;;;5062214;28;20053;-54
2022/05/11 02:59:29;;;;;;;17.88;10.18;;;13.00;99.90;;;;;;5062560;28;20688;-52
2022/05/11 03:01:56;;;;;;;19.70;10.52;;;12.90;99.90;;;;;;5062545;28;20047;-53
2022/05/11 03:04:22;;;;;;;16.67;9.70;;;12.90;99.90;;;;;;5062624;28;20455;-51
2022/05/11 03:06:48;;;;;;;17.52;9.68;;;12.90;99.90;;;;;;5062005;28;20041;-53
2022/05/11 03:09:17;;;;;;;18.00;9.95;;;12.90;99.90;;;;;;5062200;28;20084;-53
2022/05/11 03:11:44;;;;;;;21.80;11.15;;;12.90;99.90;;;;;;5062188;28;20037;-53
2022/05/11 03:14:11;;;;;;;17.10;9.35;;;12.90;99.90;;;;;;5062181;28;20141;-53
2022/05/11 03:16:38;;;;;;;16.60;9.85;;;12.90;99.90;;;;;;5062049;28;20041;-54
2022/05/11 03:19:04;;;;;;;18.58;10.05;;;12.90;99.90;;;;;;5061893;28;20401;-54
2022/05/11 03:21:30;;;;;;;17.60;9.50;;;12.80;99.90;;;;;;5062229;28;20044;-53
2022/05/11 03:23:55;;;;;;;16.08;9.63;;;12.90;99.90;;;;;;5062089;28;20053;-53
2022/05/11 03:26:22;;;;;;;15.30;9.55;;;12.80;99.90;;;;;;5061896;28;20080;-54
2022/05/11 03:28:48;;;;;;;15.52;9.20;;;12.80;99.90;;;;;;5062304;28;20068;-54
2022/05/11 03:31:14;;;;;;;16.20;9.93;;;12.80;99.90;;;;;;5043885;28;20079;-54
2022/05/11 03:36:24;;;;;;;18.38;11.40;;;12.80;99.90;;;;;;5061891;28;20072;-54
2022/05/11 03:38:50;;;;;;;16.85;9.82;;;12.80;99.90;;;;;;5043807;28;20041;-53
2022/05/11 03:41:16;;;;;;;16.15;8.77;;;12.80;99.90;;;;;;5061608;28;20085;-54
2022/05/11 03:43:43;;;;;;;16.80;9.30;;;12.70;99.90;;;;;;5061618;28;20049;-53
2022/05/11 03:46:08;;;;;;;15.05;9.57;;;12.80;99.90;;;;;;5043751;28;20041;-51
2022/05/11 03:48:34;;;;;;;16.58;9.00;;;12.80;99.90;;;;;;5061366;28;20080;-52
2022/05/11 03:51:00;;;;;;;16.15;8.75;;;12.80;99.90;;;;;;5061300;28;20053;-52
2022/05/11 03:53:27;;;;;;;15.13;8.98;;;12.80;99.90;;;;;;5061298;28;20508;-53
2022/05/11 03:55:53;;;;;;;14.57;8.73;;;12.80;99.90;;;;;;5043309;28;20064;-53
2022/05/11 03:58:19;;;;;;;13.75;8.73;;;12.80;99.90;;;;;;5061376;28;20425;-54
2022/05/11 04:00:44;;;;;;;17.50;7.95;;;12.80;99.90;;;;;;5061195;28;20045;-54
2022/05/11 04:03:10;;;;;;;16.17;8.63;;;12.80;99.90;;;;;;5061490;28;20044;-53
2022/05/11 04:05:35;;;;;;;14.07;8.20;;;12.70;99.90;;;;;;5061063;28;20089;-52
2022/05/11 04:08:01;;;;;;;16.02;7.68;;;12.80;99.90;;;;;;5060921;28;20052;-54
2022/05/11 04:10:27;;;;;;;14.57;8.82;;;12.80;99.90;;;;;;5061330;28;20041;-53
2022/05/11 04:12:53;;;;;;;15.20;8.85;;;12.80;99.90;;;;;;5043503;28;20052;-53
2022/05/11 04:15:19;;;;;;;15.60;8.25;;;12.90;99.90;;;;;;5060984;28;20040;-54
2022/05/11 04:17:45;;;;;;;20.30;8.65;;;12.90;99.90;;;;;;5060837;28;20075;-53
2022/05/11 04:20:14;;;;;;;18.33;7.93;;;12.80;99.90;;;;;;5061126;28;20048;-52
2022/05/11 04:22:40;;;;;;;13.45;7.53;;;12.90;99.90;;;;;;5060556;28;20032;-52
2022/05/11 04:25:07;;;;;;;15.68;7.85;;;12.90;99.90;;;;;;5042657;28;20044;-53
2022/05/11 04:27:34;;;;;;;15.80;7.57;;;12.90;99.90;;;;;;5060714;28;20036;-54
2022/05/11 04:30:01;;;;;;;14.80;8.52;;;12.90;99.90;;;;;;5060911;28;20041;-52
2022/05/11 04:32:28;;;;;;;17.27;7.35;;;13.00;99.90;;;;;;5060537;28;20049;-54
2022/05/11 04:34:54;;;;;;;12.27;7.28;;;12.90;99.90;;;;;;5060743;28;20057;-54
2022/05/11 04:37:19;;;;;;;11.02;6.68;;;13.00;99.90;;;;;;5060704;28;20068;-54
2022/05/11 04:39:45;;;;;;;14.48;7.28;;;13.00;99.90;;;;;;5060617;28;20190;-53
2022/05/11 04:42:14;;;;;;;16.40;6.97;;;13.00;99.90;;;;;;5060255;28;20103;-54
2022/05/11 04:44:39;;;;;;;14.30;6.97;;;13.00;99.90;;;;;;5060482;28;20060;-53
2022/05/11 04:47:10;;;;;;;14.75;7.75;;;13.10;99.90;;;;;;5060308;28;20100;-54
2022/05/11 04:49:36;;;;;;;11.73;6.82;;;13.10;99.90;;;;;;5060490;28;20045;-54
2022/05/11 04:52:09;;;;;;;17.60;7.15;;;13.10;99.90;;;;;;5060381;28;20476;-53
2022/05/11 04:54:48;;;;;;;13.52;7.28;;;13.10;99.90;;;;;;5042615;28;20043;-53
2022/05/11 04:57:14;;;;;;;15.15;6.70;;;13.10;99.90;;;;;;5060171;28;20074;-53
2022/05/11 04:59:40;;;;;;;13.25;6.47;;;13.10;99.90;;;;;;5060331;28;20045;-53
2022/05/11 05:02:12;;;;;;;13.40;7.10;;;13.10;99.90;;;;;;5059906;28;20071;-53
2022/05/11 05:04:38;;;;;;;16.45;7.13;;;13.10;99.90;;;;;;5060313;28;20052;-54
2022/05/11 05:07:04;;;;;;;15.80;7.22;;;13.20;99.90;;;;;;5060036;28;20041;-53
2022/05/11 05:09:29;;;;;;;14.88;6.40;;;13.10;99.90;;;;;;5059917;28;20068;-53
2022/05/11 05:11:55;;;;;;;13.45;6.63;;;13.20;99.90;;;;;;5059998;28;20524;-53
2022/05/11 05:14:21;;;;;;;13.30;6.45;;;13.20;99.90;;;;;;5060276;28;20432;-52
2022/05/11 05:16:48;;;;;;;16.27;8.10;;;13.20;99.90;;;;;;5060051;28;20489;-53
2022/05/11 05:19:15;;;;;;;15.57;7.85;;;13.10;99.90;;;;;;5059987;28;20452;-54
2022/05/11 05:21:41;;;;;;;17.60;7.63;;;13.30;99.90;;;;;;5060158;28;20041;-52
2022/05/11 05:24:07;;;;;;;13.40;6.68;;;13.20;99.90;;;;;;5060106;28;20052;-54
2022/05/11 05:26:33;;;;;;;14.60;6.40;;;13.30;99.90;;;;;;5059987;28;20048;-55
2022/05/11 05:31:43;;;;;;;12.13;6.13;;;13.30;99.90;;;;;;5059918;28;20501;-54
2022/05/11 05:34:09;;;;;;;11.90;6.28;;;13.30;99.90;;;;;;5059909;28;20054;-53
2022/05/11 05:36:39;;;;;;;14.18;6.50;;;13.40;99.90;;;;;;5059826;28;20041;-53
2022/05/11 05:39:06;;;;;;;14.27;7.75;;;13.40;99.90;;;;;;5060025;28;20041;-54
2022/05/11 05:41:32;;;;;;;13.95;6.20;;;13.40;99.90;;;;;;5059942;28;21119;-54
2022/05/11 05:43:58;;;;;;;15.18;6.85;;;13.50;99.90;;;;;;5059650;28;20153;-53
2022/05/11 05:46:24;;;;;;;15.10;7.43;;;13.60;99.90;;;;;;5059803;28;20485;-54
2022/05/11 05:48:50;;;;;;;13.35;6.40;;;13.50;99.90;;;;;;5059590;28;20083;-53
2022/05/11 05:51:18;;;;;;;12.65;6.03;;;13.50;99.90;;;;;;5059691;28;20056;-53
2022/05/11 05:53:45;;;;;;;15.82;6.78;;;13.60;99.90;;;;;;5059607;28;20067;-53
2022/05/11 05:56:12;;;;;;;17.67;6.38;;;13.70;99.90;;;;;;5062564;28;20048;-54
2022/05/11 05:58:39;;;;;;;15.07;6.60;;;13.80;99.90;;;;;;5063635;28;20051;-54
2022/05/11 06:01:05;;;;;;;13.40;6.15;;;13.80;99.90;;;;;;5063431;28;20033;-53
2022/05/11 06:03:33;;;;;;;15.32;6.18;;;13.90;99.90;;;;;;5063339;28;20049;-52
2022/05/11 06:05:59;;;;;;;14.65;6.15;;;14.00;99.90;;;;;;5063678;28;20063;-54
2022/05/11 06:08:25;;;;;;;16.63;6.40;;;13.90;99.90;;;;;;5045405;28;20036;-53
2022/05/11 06:10:53;;;;;;;12.65;5.95;;;13.90;99.90;;;;;;5063233;28;20095;-52
2022/05/11 06:13:22;;;;;;;14.20;6.30;;;14.00;99.90;;;;;;5063142;28;20053;-53
2022/05/11 06:15:49;;;;;;;12.55;6.60;;;14.00;99.90;;;;;;5045302;28;20045;-52
2022/05/11 06:18:15;;;;;;;15.32;5.97;;;14.00;99.90;;;;;;5044880;28;20546;-53
2022/05/11 06:20:40;;;;;;;13.55;6.20;;;14.10;99.90;;;;;;5063367;28;20045;-52
2022/05/11 06:23:06;;;;;;;16.38;6.28;;;14.20;99.90;;;;;;5063218;28;20045;-53
2022/05/11 06:25:34;;;;;;;16.02;6.18;;;14.40;99.90;;;;;;5043886;28;20508;-53
2022/05/11 06:28:01;;;;;;;16.40;6.07;;;14.30;99.90;;;;;;5059855;28;20105;-53
2022/05/11 06:30:28;;;;;;;13.43;6.25;;;14.40;99.90;;;;;;5041780;28;20059;-53
2022/05/11 06:32:54;;;;;;;15.65;7.07;;;14.50;99.90;;;;;;5041981;28;20053;-53
2022/05/11 06:35:22;;;;;;;15.10;6.43;;;14.50;99.90;;;;;;5059713;28;20055;-50
2022/05/11 06:37:51;;;;;;;14.75;5.95;;;14.50;99.90;;;;;;5059361;28;20049;-55
2022/05/11 06:40:17;;;;;;;15.57;6.25;;;14.50;99.90;;;;;;5059510;28;20044;-53
2022/05/11 06:42:43;;;;;;;16.00;6.00;;;14.60;99.90;;;;;;5059578;28;20495;-52
2022/05/11 06:45:10;;;;;;;16.13;6.30;;;14.50;99.90;;;;;;5059264;28;20052;-53
2022/05/11 06:47:36;;;;;;;16.40;6.15;;;14.60;99.90;;;;;;5059160;28;20075;-53
2022/05/11 06:50:02;;;;;;;15.73;6.60;;;14.50;99.90;;;;;;5059368;28;20041;-52
2022/05/11 06:52:28;;;;;;;16.08;6.20;;;14.60;99.90;;;;;;5059131;28;20052;-53
2022/05/11 07:00:32;;;;;;;19.20;6.65;;;14.70;99.90;;;;;;5039351;28;20053;-53
2022/05/11 07:02:58;;;;;;;14.93;6.15;;;14.50;99.90;;;;;;5021354;28;20049;-54
2022/05/11 07:05:24;;;;;;;15.10;5.88;;;14.60;99.90;;;;;;5038599;28;20454;-53
2022/05/11 07:07:53;;;;;;;16.80;6.15;;;14.70;99.90;;;;;;5038943;28;20056;-53
2022/05/11 07:10:20;;;;;;;16.40;5.90;;;14.70;99.90;;;;;;5041962;28;20037;-53
2022/05/11 07:12:46;;;;;;;15.13;6.00;;;14.80;99.90;;;;;;5059029;28;20148;-53
2022/05/11 07:15:18;;;;;;;17.05;5.97;;;14.80;99.90;;;;;;5058615;28;20047;-52
2022/05/11 07:17:55;;;;;;;13.52;5.53;;;14.80;99.90;;;;;;5058250;28;20504;-53
2022/05/11 07:20:24;;;;;;;11.90;5.30;;;14.90;99.90;;;;;;5058997;28;20044;-52
2022/05/11 07:22:50;;;;;;;14.60;5.90;;;14.90;99.90;;;;;;5040755;28;20056;-53
2022/05/11 07:25:17;;;;;;;15.93;6.88;;;15.00;99.90;;;;;;5040875;28;20060;-53
2022/05/11 07:27:44;;;;;;;15.35;6.50;;;15.10;99.90;;;;;;5058205;28;20033;-54
2022/05/11 07:30:13;;;;;;;20.77;5.72;;;15.20;99.90;;;;;;5058805;28;20049;-53
2022/05/11 07:32:39;;;;;;;14.05;4.00;;;15.20;99.90;;;;;;5058592;28;20053;-54
2022/05/11 07:35:07;;;;;;;13.48;4.72;;;15.30;99.90;;;;;;5058556;28;20040;-54
2022/05/11 07:37:33;;;;;;;13.98;4.10;;;15.30;99.90;;;;;;5058332;28;20048;-56
2022/05/11 07:40:00;;;;;;;12.38;3.55;;;15.50;99.90;;;;;;5040578;28;20045;-53
2022/05/11 07:42:27;;;;;;;10.90;3.90;;;15.40;99.90;;;;;;5058184;28;20084;-53
2022/05/11 07:44:52;;;;;;;18.17;4.88;;;15.40;99.90;;;;;;5058080;28;20531;-55
2022/05/11 07:47:20;;;;;;;14.25;4.00;;;15.40;99.90;;;;;;5058085;28;20098;-54
2022/05/11 07:49:46;;;;;;;11.95;3.72;;;15.40;99.90;;;;;;5057945;28;20051;-54
2022/05/11 07:52:12;;;;;;;20.15;4.25;;;15.50;99.90;;;;;;5040125;28;20101;-54
2022/05/11 07:54:40;;;;;;;13.30;4.47;;;15.60;99.90;;;;;;5058449;28;20064;-53
2022/05/11 07:59:52;;;;;;;16.25;4.13;;;15.60;99.90;;;;;;5058311;28;20059;-54
2022/05/11 08:02:18;;;;;;;14.65;4.53;;;15.50;99.90;;;;;;5057818;28;20823;-56
2022/05/11 08:04:44;;;;;;;18.00;4.35;;;15.50;99.90;;;;;;5057614;28;20045;-53
2022/05/11 08:07:13;;;;;;;13.95;4.78;;;15.60;99.90;;;;;;5057820;28;20052;-50
2022/05/11 08:09:39;;;;;;;12.73;4.38;;;15.50;99.90;;;;;;5039301;28;20076;-53
2022/05/11 08:12:05;;;;;;;14.77;4.43;;;15.80;99.90;;;;;;5057881;28;20077;-52
2022/05/11 08:14:31;;;;;;;13.68;4.55;;;15.80;99.90;;;;;;5057963;28;20174;-53
2022/05/11 08:16:56;;;;;;;14.95;4.65;;;15.70;99.90;;;;;;5057367;28;20548;-52
2022/05/11 08:19:24;;;;;;;14.88;4.75;;;15.80;99.90;;;;;;5057206;28;20555;-54
2022/05/11 08:21:51;;;;;;;17.42;5.38;;;16.00;99.90;;;;;;5057387;28;20047;-53
2022/05/11 08:24:17;;;;;;;16.77;4.53;;;15.90;99.90;;;;;;5056903;28;20051;-53
2022/05/11 08:26:45;;;;;;;13.55;3.90;;;15.80;99.90;;;;;;5056855;28;20104;-53
2022/05/11 08:33:19;;;;;;;13.95;3.53;;;15.90;99.90;;;;;;5057867;28;20093;-53
2022/05/11 08:34:44;;;;;;;14.40;3.97;;;16.00;99.90;;;;;;5060218;28;20052;-53
2022/05/11 08:37:09;;;;;;;14.93;4.10;;;16.10;99.90;;;;;;5060799;28;20112;-53
2022/05/11 08:39:35;;;;;;;15.43;4.00;;;16.10;99.90;;;;;;5060375;28;20044;-52
2022/05/11 08:42:03;;;;;;;13.90;4.15;;;16.10;99.90;;;;;;5042562;28;20049;-53
2022/05/11 08:44:33;;;;;;;15.63;4.20;;;16.10;99.90;;;;;;5060810;28;20045;-55
2022/05/11 08:47:13;;;;;;;15.55;4.47;;;16.10;99.90;;;;;;5060407;28;20041;-53
2022/05/11 08:49:44;;;;;;;14.98;4.30;;;15.90;99.90;;;;;;5060562;28;20048;-51
2022/05/11 08:52:17;;;;;;;20.67;4.70;;;16.10;99.90;;;;;;5060422;28;20055;-54
2022/05/11 08:54:51;;;;;;;14.55;4.68;;;16.10;99.90;;;;;;5060585;28;20051;-54
2022/05/11 08:57:25;;;;;;;14.75;3.90;;;16.10;99.90;;;;;;5060382;28;20517;-54
2022/05/11 08:59:57;;;;;;;12.48;3.60;;;16.30;99.90;;;;;;5060424;28;20041;-53
2022/05/11 09:02:28;;;;;;;15.85;4.30;;;16.30;99.90;;;;;;5060287;28;20091;-53
2022/05/11 09:04:56;;;;;;;17.63;4.40;;;16.10;99.90;;;;;;5060370;28;20386;-55
2022/05/11 09:07:22;;;;;;;12.20;4.28;;;16.20;99.90;;;;;;5060465;28;20503;-54
2022/05/11 09:09:51;;;;;;;14.35;3.70;;;16.00;99.90;;;;;;5060148;28;20064;-53
2022/05/11 09:12:17;;;;;;;13.63;3.97;;;16.20;99.90;;;;;;5060013;28;20124;-54
2022/05/11 09:14:51;;;;;;;14.73;3.97;;;16.60;99.90;;;;;;5060131;28;20057;-54
2022/05/11 09:17:32;;;;;;;18.50;4.80;;;16.90;99.90;;;;;;5060029;28;20041;-55
2022/05/11 09:20:07;;;;;;;15.23;3.17;;;17.10;99.90;;;;;;5060258;28;20040;-53
2022/05/11 09:22:37;;;;;;;12.27;3.00;;;17.30;99.90;;;;;;5059837;28;20543;-54
2022/05/11 09:25:14;;;;;;;14.75;2.80;;;17.20;99.90;;;;;;5060075;28;20163;-55
2022/05/11 09:27:40;;;;;;;13.85;2.53;;;17.10;99.90;;;;;;5059860;28;20056;-55
2022/05/11 09:30:14;;;;;;;15.50;3.47;;;16.90;99.90;;;;;;5065145;28;20053;-54
2022/05/11 09:32:44;;;;;;;12.63;3.13;;;16.80;99.90;;;;;;5066462;28;20096;-54
2022/05/11 09:35:16;;;;;;;10.93;2.72;;;16.80;99.90;;;;;;5066242;28;20037;-54
2022/05/11 09:37:42;;;;;;;13.18;3.20;;;16.90;99.90;;;;;;5048734;28;20084;-54
2022/05/11 09:40:22;;;;;;;13.57;3.03;;;16.90;99.90;;;;;;5066485;28;20037;-54
2022/05/11 09:42:55;;;;;;;12.07;2.47;;;17.10;99.90;;;;;;5066419;28;20040;-54
2022/05/11 09:45:40;;;;;;;7.70;1.98;;;17.20;99.90;;;;;;5066589;28;20045;-54
2022/05/11 09:48:27;;;;;;;12.40;2.47;;;17.40;99.90;;;;;;5066072;28;20086;-54
2022/05/11 09:51:13;;;;;;;10.82;2.30;;;17.70;99.90;;;;;;5048348;28;20045;-54
2022/05/11 09:53:50;;;;;;;12.13;2.50;;;17.70;99.90;;;;;;5048776;28;20044;-55
2022/05/11 09:56:36;;;;;;;9.35;2.17;;;17.80;99.90;;;;;;5066245;28;20519;-54
2022/05/11 09:59:25;;;;;;;11.27;2.55;;;17.40;99.90;;;;;;5066459;28;20033;-54
2022/05/11 10:02:21;;;;;;;13.15;2.65;;;17.60;99.90;;;;;;5066155;28;20060;-54
2022/05/11 10:05:04;;;;;;;10.77;2.80;;;17.80;99.90;;;;;;5066406;28;20055;-54
2022/05/11 10:07:37;;;;;;;8.70;3.08;;;17.70;99.90;;;;;;5066288;28;20079;-55
2022/05/11 10:10:12;;;;;;;10.23;2.42;;;17.70;99.90;;;;;;5065993;28;20063;-54
2022/05/11 10:12:41;;;;;;;11.65;2.70;;;17.40;99.90;;;;;;5066053;28;20509;-54
2022/05/11 10:24:03;;;;;;;11.95;2.60;;;18.00;99.90;;;;;;5064836;28;20075;-54
2022/05/11 10:26:45;;;;;;;14.40;2.63;;;18.20;99.90;;;;;;5066080;28;20065;-53
2022/05/11 10:29:28;;;;;;;11.63;2.85;;;18.20;99.90;;;;;;5048073;28;20105;-55
2022/05/11 10:32:03;;;;;;;12.38;2.53;;;18.60;99.90;;;;;;5066412;28;20095;-54
2022/05/11 10:34:42;;;;;;;10.68;2.20;;;18.50;99.90;;;;;;5066281;28;20041;-53
2022/05/11 10:37:29;;;;;;;9.40;2.40;;;17.80;99.90;;;;;;5048330;28;20049;-54
2022/05/11 10:40:30;;;;;;;12.40;2.78;;;17.70;99.90;;;;;;5047804;28;20064;-53
2022/05/11 10:43:14;;;;;;;13.90;3.17;;;17.20;99.90;;;;;;5062886;28;20121;-53
2022/05/11 10:46:00;;;;;;;12.00;2.97;;;17.60;99.90;;;;;;5062988;28;20044;-54
2022/05/11 10:48:59;;;;;;;10.73;2.03;;;17.90;99.90;;;;;;5040130;28;20057;-52
2022/05/11 10:51:43;;;;;;;11.35;2.55;;;18.20;99.90;;;;;;5062981;28;20048;-54
2022/05/11 10:54:28;;;;;;;10.27;2.78;;;18.20;99.90;;;;;;5062774;28;20064;-54
2022/05/11 10:57:04;;;;;;;12.68;2.45;;;18.50;99.90;;;;;;5062374;28;20088;-53
2022/05/11 10:59:42;;;;;;;12.77;3.47;;;18.60;99.90;;;;;;5062591;28;20041;-55
2022/05/11 11:03:03;;;;;;;13.45;2.67;;;18.60;99.90;;;;;;5062394;28;20106;-54
2022/05/11 11:08:50;;;;;;;10.65;2.83;;;18.60;99.90;;;;;;5062423;28;20048;-54
2022/05/11 11:11:27;;;;;;;10.85;2.30;;;18.80;99.90;;;;;;5062211;28;20092;-55
2022/05/11 11:14:00;;;;;;;13.75;3.97;;;19.10;99.90;;;;;;5062293;28;20553;-53
2022/05/11 11:16:32;;;;;;;14.07;2.80;;;19.10;99.90;;;;;;5062305;28;20060;-54
2022/05/11 11:18:59;;;;;;;11.55;2.53;;;19.30;99.90;;;;;;5062161;28;20052;-54
2022/05/11 11:21:26;;;;;;;11.75;2.45;;;19.20;99.90;;;;;;5061991;28;20051;-53
2022/05/11 11:24:24;;;;;;;10.48;2.45;;;19.30;99.90;;;;;;5061488;28;20045;-55
2022/05/11 11:26:51;;;;;;;13.90;3.60;;;18.90;99.90;;;;;;5041936;28;20041;-54
2022/05/11 11:29:21;;;;;;;10.50;2.63;;;18.90;99.90;;;;;;5042080;28;20071;-54
2022/05/11 11:32:04;;;;;;;10.07;2.88;;;19.10;99.90;;;;;;5042041;28;20049;-55
2022/05/11 11:34:35;;;;;;;17.45;3.33;;;19.60;99.90;;;;;;5041556;28;20049;-54
2022/05/11 11:37:24;;;;;;;14.07;3.50;;;19.20;99.90;;;;;;5041702;28;20116;-55
2022/05/11 11:40:17;;;;;;;12.20;2.50;;;18.60;99.90;;;;;;5041069;28;20041;-54
2022/05/11 11:42:45;;;;;;;15.23;2.60;;;18.90;99.90;;;;;;5041026;28;20065;-53
2022/05/11 11:45:31;;;;;;;13.48;2.67;;;18.80;99.90;;;;;;5041040;28;20045;-54
2022/05/11 11:48:23;;;;;;;12.02;2.92;;;18.90;99.90;;;;;;5022706;28;20056;-54
2022/05/11 11:50:55;;;;;;;11.65;2.65;;;19.00;99.90;;;;;;5040816;28;20041;-53
2022/05/11 11:54:01;;;;;;;12.77;3.03;;;19.00;99.90;;;;;;5039194;28;20133;-55
2022/05/11 11:56:27;;;;;;;11.10;3.35;;;18.50;99.90;;;;;;5050813;28;20056;-54
2022/05/11 11:59:30;;;;;;;12.75;3.15;;;18.00;99.90;;;;;;5060734;28;20064;-54
2022/05/11 12:02:03;;;;;;;12.38;2.92;;;17.90;99.90;;;;;;5055959;28;20045;-54
2022/05/11 12:04:35;;;;;;;11.25;2.92;;;17.90;99.90;;;;;;5060590;28;20041;-54
2022/05/11 12:15:57;;;;;;;13.93;3.47;;;17.70;99.90;;;;;;5060588;28;19951;-54
2022/05/11 12:18:32;;;;;;;13.20;4.00;;;17.80;99.90;;;;;;5059336;28;20040;-53
2022/05/11 12:21:00;;;;;;;13.00;2.90;;;17.90;99.90;;;;;;5060746;28;20045;-52
2022/05/11 12:23:38;;;;;;;14.52;3.25;;;17.90;99.90;;;;;;5060923;28;20041;-54
2022/05/11 12:26:10;;;;;;;12.02;2.95;;;18.00;99.90;;;;;;5060488;28;20075;-53
2022/05/11 12:28:38;;;;;;;13.07;3.50;;;18.50;99.90;;;;;;5061083;28;20113;-53
2022/05/11 12:31:05;;;;;;;10.20;2.90;;;18.70;99.90;;;;;;5060831;28;20048;-55
2022/05/11 12:33:34;;;;;;;15.25;2.75;;;18.90;99.90;;;;;;5060741;28;20041;-53
2022/05/11 12:36:00;;;;;;;12.82;3.70;;;18.70;99.90;;;;;;5060758;28;20053;-54
2022/05/11 12:38:37;;;;;;;14.55;3.83;;;18.50;99.90;;;;;;5060706;28;20045;-54
2022/05/11 12:41:13;;;;;;;12.32;3.58;;;18.50;99.90;;;;;;5060601;28;20075;-54
2022/05/11 12:43:40;;;;;;;10.50;2.80;;;18.50;99.90;;;;;;5060511;28;20068;-54
2022/05/11 12:46:10;;;;;;;11.55;2.67;;;18.80;99.90;;;;;;5060606;28;20045;-54
2022/05/11 12:49:02;;;;;;;12.07;2.85;;;18.90;99.90;;;;;;5060499;28;20049;-54
2022/05/11 12:51:32;;;;;;;;;;;19.00;99.90;;;;;;5049867;28;20132;-54
2022/05/11 12:54:01;;;;;;;16.15;3.15;;;19.00;99.90;;;;;;5060252;28;20011;-54
2022/05/11 12:56:31;;;;;;;12.07;2.55;;;18.70;99.90;;;;;;5041203;28;20073;-54
2022/05/11 12:58:59;;;;;;;12.07;3.20;;;18.60;99.90;;;;;;5060040;28;20060;-54
2022/05/11 13:01:33;;;;;;;11.80;2.90;;;18.30;99.90;;;;;;5060002;28;20516;-55
2022/05/11 13:04:02;;;;;;;13.73;3.63;;;18.20;99.90;;;;;;5059600;28;20555;-52
2022/05/11 13:06:41;;;;;;;10.02;2.80;;;18.20;99.90;;;;;;5060111;28;20723;-54
2022/05/11 13:09:18;;;;;;;11.65;2.35;;;18.10;99.90;;;;;;5059744;28;20048;-55
2022/05/11 13:11:45;;;;;;;11.15;2.30;;;18.20;99.90;;;;;;5060097;28;20080;-55
2022/05/11 13:14:16;;;;;;;15.35;3.70;;;18.20;99.90;;;;;;5059545;28;20041;-53
2022/05/11 13:16:56;;;;;;;14.95;3.03;;;17.90;99.90;;;;;;5056461;28;20142;-54
2022/05/11 13:19:37;;;;;;;12.13;3.65;;;18.40;99.90;;;;;;5056209;28;20076;-54
2022/05/11 13:22:11;;;;;;;14.43;3.58;;;18.50;99.90;;;;;;5056402;28;20052;-53
2022/05/11 13:24:50;;;;;;;11.85;3.00;;;18.70;99.90;;;;;;5058641;28;20041;-54
2022/05/11 13:27:48;;;;;;;13.35;3.10;;;18.90;99.90;;;;;;5058644;28;20045;-54
2022/05/11 13:30:29;;;;;;;11.60;3.00;;;19.10;99.90;;;;;;5057660;28;20057;-55
2022/05/11 13:33:03;;;;;;;12.43;3.13;;;18.70;99.90;;;;;;5058043;28;20425;-54
2022/05/11 13:35:37;;;;;;;9.73;2.60;;;18.70;99.90;;;;;;5057120;28;20045;-54